createdAt,value
2023-05-28T00:01:07.369Z,3.00
2023-05-28T00:03:36.693Z,2.92
2023-05-28T00:06:05.234Z,2.88
2023-05-28T00:08:32.449Z,2.63
2023-05-28T00:11:02.749Z,3.15
2023-05-28T00:13:31.143Z,3.38
2023-05-28T00:15:58.515Z,3.20
2023-05-28T00:18:25.859Z,3.03
2023-05-28T00:20:53.113Z,2.83
2023-05-28T00:23:20.583Z,2.70
2023-05-28T00:25:47.918Z,2.90
2023-05-28T00:28:15.328Z,2.92
2023-05-28T00:30:42.676Z,2.63
2023-05-28T00:33:10.189Z,3.20
2023-05-28T00:35:37.621Z,2.97
2023-05-28T00:38:04.938Z,2.42
2023-05-28T00:40:32.220Z,2.65
2023-05-28T00:42:59.445Z,2.67
2023-05-28T00:45:26.703Z,2.70
2023-05-28T00:47:54.445Z,2.53
2023-05-28T00:50:21.805Z,2.72
2023-05-28T00:52:49.844Z,2.90
2023-05-28T00:55:17.412Z,2.38
2023-05-28T00:57:46.522Z,2.53
2023-05-28T01:00:15.104Z,2.60
2023-05-28T01:02:42.546Z,2.45
2023-05-28T01:05:10.599Z,2.75
2023-05-28T01:07:37.906Z,2.42
2023-05-28T01:10:06.019Z,2.58
2023-05-28T01:12:33.748Z,2.47
2023-05-28T01:15:01.052Z,2.33
2023-05-28T01:17:29.267Z,2.60
2023-05-28T01:19:56.540Z,2.70
2023-05-28T01:22:28.842Z,2.60
2023-05-28T01:24:56.149Z,2.65
2023-05-28T01:27:23.538Z,2.40
2023-05-28T01:29:50.819Z,2.30
2023-05-28T01:32:18.004Z,2.75
2023-05-28T01:34:45.674Z,2.35
2023-05-28T01:37:14.143Z,3.00
2023-05-28T01:39:46.515Z,2.45
2023-05-28T01:42:13.899Z,2.70
2023-05-28T01:44:42.681Z,2.70
2023-05-28T01:47:11.667Z,2.33
2023-05-28T01:52:07.739Z,2.40
2023-05-28T01:54:36.001Z,2.25
2023-05-28T01:57:03.305Z,2.67
2023-05-28T01:59:31.045Z,2.40
2023-05-28T02:01:58.420Z,2.22
2023-05-28T02:04:26.128Z,2.40
2023-05-28T02:06:53.410Z,2.45
2023-05-28T02:09:20.651Z,2.20
2023-05-28T02:11:48.073Z,2.42
2023-05-28T02:14:15.770Z,2.33
2023-05-28T02:16:50.354Z,2.42
2023-05-28T02:19:18.377Z,2.22
2023-05-28T02:21:45.775Z,2.38
2023-05-28T02:24:13.065Z,2.28
2023-05-28T02:26:40.348Z,2.10
2023-05-28T02:29:07.607Z,1.95
2023-05-28T02:31:34.873Z,2.40
2023-05-28T02:34:02.104Z,2.30
2023-05-28T02:36:30.958Z,2.25
2023-05-28T02:38:58.239Z,2.35
2023-05-28T02:41:27.144Z,2.20
2023-05-28T02:43:54.863Z,1.95
2023-05-28T02:46:22.167Z,1.90
2023-05-28T02:48:49.865Z,2.20
2023-05-28T02:51:17.135Z,2.22
2023-05-28T02:53:44.360Z,2.05
2023-05-28T02:56:11.619Z,2.22
2023-05-28T02:58:38.868Z,2.08
2023-05-28T03:01:07.375Z,1.63
2023-05-28T03:03:34.800Z,2.08
2023-05-28T03:06:02.771Z,2.10
2023-05-28T03:08:30.073Z,2.15
2023-05-28T03:10:57.311Z,1.85
2023-05-28T03:13:24.561Z,2.22
2023-05-28T03:15:52.111Z,1.63
2023-05-28T03:18:19.640Z,2.20
2023-05-28T03:20:46.946Z,2.20
2023-05-28T03:23:14.176Z,2.03
2023-05-28T03:25:41.409Z,1.88
2023-05-28T03:28:09.025Z,1.80
2023-05-28T03:30:36.255Z,1.90
2023-05-28T03:33:03.508Z,2.00
2023-05-28T03:35:30.752Z,1.70
2023-05-28T03:37:57.975Z,1.80
2023-05-28T03:40:25.449Z,2.33
2023-05-28T03:42:52.674Z,2.22
2023-05-28T03:45:19.904Z,1.90
2023-05-28T03:47:47.170Z,2.05
2023-05-28T03:50:14.424Z,2.10
2023-05-28T03:52:41.939Z,1.80
2023-05-28T03:55:09.571Z,2.00
2023-05-28T03:57:37.539Z,1.90
2023-05-28T04:00:05.983Z,1.70
2023-05-28T04:02:33.323Z,1.60
2023-05-28T04:05:00.716Z,1.92
2023-05-28T04:07:28.073Z,2.13
2023-05-28T04:09:55.442Z,2.30
2023-05-28T04:12:22.729Z,1.88
2023-05-28T04:14:50.051Z,2.03
2023-05-28T04:17:17.383Z,1.85
2023-05-28T04:19:44.816Z,1.98
2023-05-28T04:22:12.031Z,1.95
2023-05-28T04:24:39.293Z,1.83
2023-05-28T04:27:07.704Z,1.80
2023-05-28T04:29:35.078Z,2.10
2023-05-28T04:32:02.419Z,1.67
2023-05-28T04:34:29.676Z,1.75
2023-05-28T04:36:57.741Z,1.90
2023-05-28T04:39:25.265Z,1.90
2023-05-28T04:41:54.775Z,1.60
2023-05-28T04:44:26.926Z,1.50
2023-05-28T04:46:54.491Z,2.15
2023-05-28T04:49:21.774Z,1.83
2023-05-28T04:51:49.028Z,1.95
2023-05-28T04:54:16.279Z,1.80
2023-05-28T04:56:43.559Z,2.13
2023-05-28T04:59:11.096Z,1.80
2023-05-28T05:01:40.147Z,2.15
2023-05-28T05:04:08.130Z,1.40
2023-05-28T05:06:35.612Z,1.60
2023-05-28T05:09:04.645Z,1.45
2023-05-28T05:13:59.262Z,1.67
2023-05-28T05:16:26.528Z,1.90
2023-05-28T05:18:53.779Z,1.65
2023-05-28T05:21:21.543Z,1.90
2023-05-28T05:23:50.042Z,1.75
2023-05-28T05:26:18.198Z,1.95
2023-05-28T05:28:46.085Z,1.90
2023-05-28T05:31:15.890Z,1.67
2023-05-28T05:33:43.169Z,1.77
2023-05-28T05:36:11.760Z,1.52
2023-05-28T05:38:39.394Z,1.67
2023-05-28T05:41:06.693Z,1.77
2023-05-28T05:43:34.075Z,1.65
2023-05-28T05:46:01.350Z,1.52
2023-05-28T05:48:29.042Z,1.83
2023-05-28T05:50:56.720Z,1.48
2023-05-28T05:53:24.819Z,1.85
2023-05-28T05:55:52.478Z,1.67
2023-05-28T05:58:19.962Z,1.55
2023-05-28T06:00:48.871Z,1.80
2023-05-28T06:05:43.522Z,1.85
2023-05-28T06:08:11.118Z,1.92
2023-05-28T06:10:38.334Z,1.65
2023-05-28T06:13:05.599Z,1.80
2023-05-28T06:15:33.142Z,1.80
2023-05-28T06:18:01.503Z,2.22
2023-05-28T06:20:28.939Z,2.00
2023-05-28T06:22:57.051Z,1.80
2023-05-28T06:25:24.369Z,1.65
2023-05-28T06:27:52.260Z,1.55
2023-05-28T06:30:19.693Z,1.60
2023-05-28T06:32:47.074Z,1.63
2023-05-28T06:35:14.593Z,1.70
2023-05-28T06:37:41.865Z,1.60
2023-05-28T06:40:11.738Z,1.60
2023-05-28T06:42:41.971Z,1.90
2023-05-28T06:45:09.974Z,1.88
2023-05-28T06:47:37.463Z,1.75
2023-05-28T06:50:07.960Z,2.13
2023-05-28T06:52:35.275Z,2.05
2023-05-28T06:55:02.542Z,2.00
2023-05-28T06:57:29.917Z,1.90
2023-05-28T06:59:57.153Z,1.80
2023-05-28T07:02:24.556Z,2.20
2023-05-28T07:04:52.137Z,2.15
2023-05-28T07:07:19.744Z,2.95
2023-05-28T07:09:47.038Z,2.95
2023-05-28T07:12:14.353Z,2.35
2023-05-28T07:14:41.619Z,2.33
2023-05-28T07:17:09.004Z,2.10
2023-05-28T07:19:39.529Z,2.38
2023-05-28T07:22:06.748Z,2.30
2023-05-28T07:24:34.007Z,2.60
2023-05-28T07:27:01.894Z,2.10
2023-05-28T07:29:29.165Z,2.22
2023-05-28T07:31:56.871Z,2.55
2023-05-28T07:34:27.453Z,2.58
2023-05-28T07:36:54.721Z,2.05
2023-05-28T07:39:22.001Z,2.00
2023-05-28T07:41:49.551Z,2.03
2023-05-28T07:44:16.894Z,1.92
2023-05-28T07:46:44.546Z,2.00
2023-05-28T07:49:11.963Z,2.22
2023-05-28T07:51:39.270Z,2.03
2023-05-28T07:54:06.798Z,2.20
2023-05-28T07:56:34.070Z,2.17
2023-05-28T07:59:01.331Z,2.55
2023-05-28T08:01:28.684Z,2.42
2023-05-28T08:03:56.266Z,2.20
2023-05-28T08:06:23.594Z,2.40
2023-05-28T08:08:50.931Z,3.03
2023-05-28T08:11:18.389Z,2.22
2023-05-28T08:13:45.944Z,2.63
2023-05-28T08:16:13.594Z,2.45
2023-05-28T08:18:41.686Z,2.55
2023-05-28T08:21:09.358Z,2.30
2023-05-28T08:23:37.120Z,2.40
2023-05-28T08:26:04.717Z,2.42
2023-05-28T08:28:32.170Z,2.70
2023-05-28T08:30:59.483Z,2.58
2023-05-28T08:33:26.779Z,2.85
2023-05-28T08:35:54.380Z,2.60
2023-05-28T08:38:21.986Z,2.40
2023-05-28T08:40:56.493Z,1.95
2023-05-28T08:43:24.412Z,2.08
2023-05-28T08:45:55.103Z,1.73
2023-05-28T08:48:23.822Z,2.00
2023-05-28T08:50:54.813Z,2.00
2023-05-28T08:53:23.540Z,2.10
2023-05-28T08:55:51.670Z,2.88
2023-05-28T08:58:19.665Z,2.40
2023-05-28T09:00:48.124Z,2.15
2023-05-28T09:03:15.962Z,2.22
2023-05-28T09:05:43.344Z,2.78
2023-05-28T09:08:11.818Z,2.25
2023-05-28T09:10:40.203Z,2.53
2023-05-28T09:13:08.024Z,2.45
2023-05-28T09:15:37.230Z,2.30
2023-05-28T09:18:07.249Z,2.50
2023-05-28T09:20:34.976Z,2.65
2023-05-28T09:23:07.589Z,2.67
2023-05-28T09:25:37.493Z,2.35
2023-05-28T09:28:05.262Z,2.30
2023-05-28T09:30:36.947Z,2.40
2023-05-28T09:33:08.680Z,2.28
2023-05-28T09:35:36.690Z,2.78
2023-05-28T09:38:13.337Z,2.58
2023-05-28T09:40:41.562Z,2.65
2023-05-28T09:43:09.826Z,1.92
2023-05-28T09:45:37.429Z,2.97
2023-05-28T09:48:05.382Z,2.10
2023-05-28T09:50:33.043Z,2.28
2023-05-28T09:53:01.296Z,2.45
2023-05-28T09:55:29.559Z,2.58
2023-05-28T09:58:04.037Z,2.40
2023-05-28T10:00:43.234Z,2.25
2023-05-28T10:03:30.148Z,2.80
2023-05-28T10:06:05.174Z,2.22
2023-05-28T10:08:38.515Z,2.33
2023-05-28T10:11:14.110Z,2.50
2023-05-28T10:13:41.980Z,2.10
2023-05-28T10:16:10.127Z,2.60
2023-05-28T10:18:39.511Z,2.53
2023-05-28T10:21:09.252Z,3.25
2023-05-28T10:23:37.056Z,2.53
2023-05-28T10:26:05.281Z,2.50
2023-05-28T10:28:32.908Z,2.67
2023-05-28T10:31:05.426Z,2.13
2023-05-28T10:33:34.068Z,2.35
2023-05-28T10:36:02.070Z,2.17
2023-05-28T10:38:30.979Z,2.50
2023-05-28T10:41:04.644Z,2.85
2023-05-28T10:43:46.441Z,2.75
2023-05-28T10:46:16.545Z,2.42
2023-05-28T10:49:06.148Z,2.55
2023-05-28T10:52:00.921Z,2.10
2023-05-28T10:54:31.233Z,2.33
2023-05-28T10:57:15.437Z,2.30
2023-05-28T11:00:02.101Z,2.20
2023-05-28T11:02:34.313Z,2.15
2023-05-28T11:05:05.341Z,2.75
2023-05-28T11:07:42.478Z,2.60
2023-05-28T11:10:13.787Z,2.50
2023-05-28T11:12:42.831Z,2.40
2023-05-28T11:15:12.061Z,2.47
2023-05-28T11:17:40.512Z,2.35
2023-05-28T11:20:19.753Z,2.30
2023-05-28T11:22:47.500Z,2.30
2023-05-28T11:25:15.169Z,2.25
2023-05-28T11:27:42.677Z,2.17
2023-05-28T11:30:10.541Z,2.30
2023-05-28T11:32:37.893Z,2.20
2023-05-28T11:35:07.568Z,2.33
2023-05-28T11:37:36.439Z,2.28
2023-05-28T11:40:06.675Z,2.33
2023-05-28T11:42:34.463Z,2.58
2023-05-28T11:45:01.930Z,2.47
2023-05-28T11:47:32.160Z,2.83
2023-05-28T11:49:59.606Z,2.28
2023-05-28T11:52:27.746Z,2.40
2023-05-28T11:54:57.988Z,2.77
2023-05-28T11:57:34.694Z,2.45
2023-05-28T12:00:13.434Z,2.67
2023-05-28T12:02:45.386Z,2.70
2023-05-28T12:05:13.319Z,2.80
2023-05-28T12:07:46.635Z,2.22
2023-05-28T12:10:16.061Z,2.00
2023-05-28T12:12:45.536Z,2.17
2023-05-28T12:15:13.471Z,2.30
2023-05-28T12:17:43.159Z,2.50
2023-05-28T12:20:16.224Z,3.25
2023-05-28T12:22:44.191Z,3.08
2023-05-28T12:25:12.237Z,2.30
2023-05-28T12:27:39.912Z,2.45
2023-05-28T12:30:08.072Z,2.55
2023-05-28T12:32:38.361Z,2.30
2023-05-28T12:35:05.997Z,2.60
2023-05-28T12:37:33.938Z,2.47
2023-05-28T12:40:01.352Z,2.58
2023-05-28T12:42:28.635Z,2.35
2023-05-28T12:44:56.196Z,2.38
2023-05-28T12:47:23.492Z,2.22
2023-05-28T12:49:51.039Z,2.42
2023-05-28T12:52:18.316Z,2.67
2023-05-28T12:54:45.706Z,2.50
2023-05-28T12:57:12.960Z,2.22
2023-05-28T12:59:40.524Z,2.08
2023-05-28T13:02:07.973Z,2.75
2023-05-28T13:04:36.649Z,2.47
2023-05-28T13:07:04.752Z,2.25
2023-05-28T13:09:32.016Z,2.40
2023-05-28T13:11:59.228Z,2.80
2023-05-28T13:14:27.089Z,2.65
2023-05-28T13:16:56.641Z,2.85
2023-05-28T13:19:23.917Z,2.25
2023-05-28T13:21:51.596Z,3.00
2023-05-28T13:24:19.069Z,2.67
2023-05-28T13:26:46.308Z,2.28
2023-05-28T13:29:13.574Z,2.45
2023-05-28T13:31:41.344Z,2.15
2023-05-28T13:34:08.684Z,3.25
2023-05-28T13:36:37.099Z,7.70
2023-05-28T13:39:05.292Z,18.33
2023-05-28T13:41:32.856Z,21.07
2023-05-28T13:44:02.074Z,26.02
2023-05-28T13:46:29.484Z,23.80
2023-05-28T13:48:57.255Z,30.13
2023-05-28T13:51:24.631Z,31.80
2023-05-28T13:53:52.462Z,30.13
2023-05-28T13:56:19.759Z,31.55
2023-05-28T13:58:47.019Z,29.55
2023-05-28T14:01:14.561Z,30.10
2023-05-28T14:03:46.513Z,30.77
2023-05-28T14:06:14.698Z,29.35
2023-05-28T14:08:41.970Z,28.80
2023-05-28T14:11:09.554Z,26.33
2023-05-28T14:13:36.848Z,31.10
2023-05-28T14:16:04.152Z,37.55
2023-05-28T14:18:31.428Z,36.00
2023-05-28T14:20:59.047Z,32.22
2023-05-28T14:23:26.472Z,31.90
2023-05-28T14:25:54.308Z,32.28
2023-05-28T14:28:21.833Z,31.87
2023-05-28T14:30:49.101Z,31.92
2023-05-28T14:33:16.468Z,31.50
2023-05-28T14:35:43.775Z,30.60
2023-05-28T14:38:11.053Z,28.02
2023-05-28T14:40:38.312Z,25.92
2023-05-28T14:43:05.587Z,24.98
2023-05-28T14:45:33.047Z,23.98
2023-05-28T14:48:02.135Z,24.27
2023-05-28T14:50:29.555Z,23.30
2023-05-28T14:52:56.845Z,22.92
2023-05-28T14:55:24.142Z,21.77
2023-05-28T14:57:51.466Z,20.63
2023-05-28T15:00:18.820Z,21.70
2023-05-28T15:02:46.225Z,21.05
2023-05-28T15:05:13.589Z,21.10
2023-05-28T15:07:41.112Z,20.05
2023-05-28T15:10:08.771Z,19.00
2023-05-28T15:12:36.287Z,20.17
2023-05-28T15:15:04.733Z,18.05
2023-05-28T15:17:32.056Z,17.67
2023-05-28T15:19:59.376Z,18.95
2023-05-28T15:22:26.799Z,18.42
2023-05-28T15:24:54.156Z,18.42
2023-05-28T15:27:21.455Z,19.40
2023-05-28T15:29:49.085Z,18.27
2023-05-28T15:32:17.717Z,17.95
2023-05-28T15:34:45.109Z,18.92
2023-05-28T15:37:13.691Z,18.70
2023-05-28T15:39:41.084Z,17.27
2023-05-28T15:42:09.027Z,17.15
2023-05-28T15:44:36.621Z,17.83
2023-05-28T15:47:03.958Z,12.88
2023-05-28T15:49:31.461Z,17.33
2023-05-28T15:52:01.648Z,17.67
2023-05-28T15:54:29.192Z,17.77
2023-05-28T15:56:56.635Z,17.13
2023-05-28T15:59:24.043Z,15.52
2023-05-28T16:01:52.428Z,17.95
2023-05-28T16:04:22.089Z,17.15
2023-05-28T16:06:49.456Z,17.08
2023-05-28T16:09:16.776Z,16.10
2023-05-28T16:11:46.075Z,16.83
2023-05-28T16:14:16.973Z,16.15
2023-05-28T16:16:48.698Z,16.00
2023-05-28T16:19:16.272Z,15.75
2023-05-28T16:21:46.800Z,15.35
2023-05-28T16:24:15.762Z,15.90
2023-05-28T16:29:10.357Z,14.88
2023-05-28T16:31:38.091Z,14.90
2023-05-28T16:34:05.636Z,15.27
2023-05-28T16:36:34.664Z,14.60
2023-05-28T16:39:03.311Z,14.40
2023-05-28T16:41:31.192Z,13.88
2023-05-28T16:43:58.688Z,15.15
2023-05-28T16:46:27.580Z,14.43
2023-05-28T16:51:23.945Z,14.02
2023-05-28T16:53:51.888Z,13.80
2023-05-28T16:56:19.494Z,13.63
2023-05-28T16:58:48.245Z,13.27
2023-05-28T17:01:19.599Z,13.40
2023-05-28T17:03:47.252Z,13.10
2023-05-28T17:06:17.447Z,12.65
2023-05-28T17:08:46.146Z,13.15
2023-05-28T17:11:13.504Z,12.90
2023-05-28T17:13:40.713Z,11.60
2023-05-28T17:16:07.948Z,12.15
2023-05-28T17:18:35.193Z,11.88
2023-05-28T17:21:02.853Z,11.80
2023-05-28T17:23:30.290Z,10.73
2023-05-28T17:25:57.585Z,11.20
2023-05-28T17:28:25.002Z,11.38
2023-05-28T17:30:52.239Z,11.05
2023-05-28T17:33:19.457Z,10.10
2023-05-28T17:35:46.767Z,10.60
2023-05-28T17:38:14.058Z,10.65
2023-05-28T17:40:41.412Z,10.15
2023-05-28T17:43:08.688Z,10.00
2023-05-28T17:45:36.044Z,9.20
2023-05-28T17:48:04.355Z,9.95
2023-05-28T17:50:31.635Z,9.65
2023-05-28T17:52:58.878Z,9.82
2023-05-28T17:55:26.555Z,9.20
2023-05-28T17:57:53.985Z,9.70
2023-05-28T18:00:22.189Z,8.80
2023-05-28T18:02:54.775Z,8.13
2023-05-28T18:05:23.160Z,9.45
2023-05-28T18:07:50.449Z,9.02
2023-05-28T18:10:17.718Z,9.63
2023-05-28T18:12:44.980Z,8.13
2023-05-28T18:15:12.401Z,9.20
2023-05-28T18:17:40.011Z,8.43
2023-05-28T18:20:08.125Z,8.98
2023-05-28T18:22:35.490Z,8.83
2023-05-28T18:25:03.537Z,7.60
2023-05-28T18:27:30.815Z,8.47
2023-05-28T18:29:58.099Z,8.93
2023-05-28T18:32:25.420Z,8.63
2023-05-28T18:34:52.656Z,8.10
2023-05-28T18:37:19.914Z,8.43
2023-05-28T18:39:47.876Z,7.07
2023-05-28T18:42:15.110Z,7.82
2023-05-28T18:44:43.706Z,7.75
2023-05-28T18:47:11.254Z,7.85
2023-05-28T18:49:38.687Z,7.55
2023-05-28T18:52:08.797Z,7.57
2023-05-28T18:54:36.140Z,7.10
2023-05-28T18:57:03.494Z,7.32
2023-05-28T18:59:30.937Z,7.57
2023-05-28T19:02:01.234Z,6.88
2023-05-28T19:04:28.687Z,7.78
2023-05-28T19:06:56.954Z,7.22
2023-05-28T19:09:24.475Z,7.43
2023-05-28T19:11:51.722Z,6.15
2023-05-28T19:14:19.011Z,6.65
2023-05-28T19:16:46.430Z,7.22
2023-05-28T19:19:14.028Z,6.63
2023-05-28T19:21:41.314Z,7.07
2023-05-28T19:24:08.867Z,6.75
2023-05-28T19:26:36.761Z,6.85
2023-05-28T19:29:04.146Z,7.28
2023-05-28T19:31:31.405Z,6.35
2023-05-28T19:33:58.655Z,5.88
2023-05-28T19:36:26.054Z,7.20
2023-05-28T19:38:53.273Z,5.57
2023-05-28T19:41:20.649Z,6.65
2023-05-28T19:43:48.073Z,5.95
2023-05-28T19:46:18.203Z,5.57
2023-05-28T19:48:45.764Z,6.75
2023-05-28T19:51:13.573Z,6.35
2023-05-28T19:53:40.812Z,7.40
2023-05-28T19:56:08.069Z,7.60
2023-05-28T19:58:35.359Z,9.02
2023-05-28T20:01:02.693Z,11.70
2023-05-28T20:03:38.524Z,29.17
2023-05-28T20:06:06.554Z,27.55
2023-05-28T20:08:33.874Z,35.40
2023-05-28T20:11:01.110Z,29.05
2023-05-28T20:13:28.563Z,21.15
2023-05-28T20:15:56.008Z,19.58
2023-05-28T20:18:23.267Z,19.42
2023-05-28T20:20:50.635Z,18.88
2023-05-28T20:23:17.921Z,17.92
2023-05-28T20:25:45.700Z,16.50
2023-05-28T20:28:13.124Z,16.45
2023-05-28T20:30:40.394Z,16.55
2023-05-28T20:33:10.090Z,14.88
2023-05-28T20:35:37.511Z,15.30
2023-05-28T20:38:05.743Z,14.80
2023-05-28T20:40:36.253Z,14.57
2023-05-28T20:43:04.577Z,14.25
2023-05-28T20:45:36.907Z,13.33
2023-05-28T20:48:04.852Z,13.57
2023-05-28T20:50:32.535Z,12.98
2023-05-28T20:53:00.882Z,12.30
2023-05-28T20:55:28.154Z,12.43
2023-05-28T20:57:55.605Z,12.45
2023-05-28T21:00:23.612Z,12.05
2023-05-28T21:02:56.782Z,12.35
2023-05-28T21:05:24.849Z,11.70
2023-05-28T21:07:52.826Z,12.07
2023-05-28T21:10:20.136Z,11.98
2023-05-28T21:12:47.345Z,11.73
2023-05-28T21:15:16.161Z,11.20
2023-05-28T21:20:11.314Z,11.45
2023-05-28T21:22:38.587Z,10.82
2023-05-28T21:25:06.235Z,10.32
2023-05-28T21:27:33.443Z,14.75
2023-05-28T21:30:01.296Z,17.45
2023-05-28T21:32:28.554Z,15.45
2023-05-28T21:34:55.938Z,20.27
2023-05-28T21:37:23.149Z,30.40
2023-05-28T21:39:51.383Z,28.25
2023-05-28T21:42:18.616Z,30.02
2023-05-28T21:44:45.886Z,64.80
2023-05-28T21:47:13.118Z,53.22
2023-05-28T21:49:40.382Z,55.58
2023-05-28T21:52:08.363Z,44.97
2023-05-28T21:54:35.909Z,44.72
2023-05-28T21:57:03.219Z,50.67
2023-05-28T21:59:31.033Z,49.67
2023-05-28T22:01:58.413Z,46.10
2023-05-28T22:04:25.773Z,74.63
2023-05-28T22:06:53.180Z,63.20
2023-05-28T22:09:20.930Z,86.20
2023-05-28T22:11:48.386Z,75.68
2023-05-28T22:14:21.536Z,53.50
2023-05-28T22:16:49.856Z,42.08
2023-05-28T22:19:18.347Z,30.05
2023-05-28T22:21:46.066Z,23.52
2023-05-28T22:24:13.381Z,15.55
2023-05-28T22:26:40.698Z,12.18
2023-05-28T22:29:08.263Z,10.27
2023-05-28T22:31:35.668Z,8.80
2023-05-28T22:34:03.525Z,7.25
2023-05-28T22:36:31.585Z,5.95
2023-05-28T22:38:59.036Z,5.88
2023-05-28T22:41:26.839Z,5.57
2023-05-28T22:43:54.213Z,5.90
2023-05-28T22:46:21.570Z,5.63
2023-05-28T22:48:50.080Z,5.40
2023-05-28T22:51:17.706Z,5.50
2023-05-28T22:53:45.480Z,5.35
2023-05-28T22:56:13.760Z,5.70
2023-05-28T22:58:42.198Z,5.57
2023-05-28T23:01:10.580Z,6.00
2023-05-28T23:03:38.751Z,6.10
2023-05-28T23:06:06.373Z,6.43
2023-05-28T23:08:33.760Z,5.63
2023-05-28T23:11:01.027Z,5.88
2023-05-28T23:13:28.225Z,6.15
2023-05-28T23:15:55.671Z,5.30
2023-05-28T23:18:23.059Z,5.35
2023-05-28T23:20:50.429Z,5.68
2023-05-28T23:23:17.998Z,5.28
2023-05-28T23:25:45.491Z,5.63
2023-05-28T23:28:12.720Z,5.45
2023-05-28T23:30:39.952Z,5.65
2023-05-28T23:33:07.214Z,5.55
2023-05-28T23:35:34.449Z,5.75
2023-05-28T23:38:01.693Z,5.68
2023-05-28T23:40:28.946Z,5.82
2023-05-28T23:42:57.572Z,5.13
2023-05-28T23:45:24.831Z,5.72
2023-05-28T23:47:52.082Z,5.07
2023-05-28T23:50:19.361Z,5.40
2023-05-28T23:52:46.630Z,5.43
2023-05-28T23:55:13.861Z,5.40
2023-05-28T23:57:41.512Z,5.15
